createdAt,value
2019-06-01T00:00:37.983Z,75.04
2019-06-01T00:03:06.621Z,74.30
2019-06-01T00:05:35.194Z,74.92
2019-06-01T00:08:04.041Z,75.17
2019-06-01T00:10:32.782Z,74.53
2019-06-01T00:13:01.431Z,74.41
2019-06-01T00:15:30.147Z,75.33
2019-06-01T00:17:58.738Z,74.29
2019-06-01T00:20:27.373Z,75.58
2019-06-01T00:22:55.997Z,74.73
2019-06-01T00:25:24.634Z,74.30
2019-06-01T00:27:53.400Z,74.70
2019-06-01T00:30:26.959Z,75.38
2019-06-01T00:32:52.353Z,73.53
2019-06-01T00:35:21.015Z,73.73
2019-06-01T00:37:50.165Z,73.34
2019-06-01T00:40:18.863Z,74.31
2019-06-01T00:42:48.303Z,74.44
2019-06-01T00:45:17.049Z,75.10
2019-06-01T00:47:46.696Z,75.17
2019-06-01T00:50:15.433Z,75.40
2019-06-01T00:52:45.095Z,74.93
2019-06-01T00:55:13.835Z,75.03
2019-06-01T00:57:43.465Z,76.08
2019-06-01T01:00:12.192Z,75.64
2019-06-01T01:02:40.875Z,75.56
2019-06-01T01:05:22.990Z,75.49
2019-06-01T01:07:53.403Z,74.29
2019-06-01T01:10:22.103Z,74.88
2019-06-01T01:13:04.386Z,75.83
2019-06-01T01:15:33.522Z,75.50
2019-06-01T01:18:02.167Z,75.07
2019-06-01T01:20:30.818Z,75.58
2019-06-01T01:22:59.364Z,75.85
2019-06-01T01:25:28.093Z,75.88
2019-06-01T01:27:57.053Z,76.33
2019-06-01T01:30:25.897Z,76.51
2019-06-01T01:32:55.793Z,77.10
2019-06-01T01:35:24.656Z,76.92
2019-06-01T01:37:58.464Z,75.96
2019-06-01T01:40:27.892Z,76.85
2019-06-01T01:42:56.614Z,77.04
2019-06-01T01:45:25.253Z,77.75
2019-06-01T01:47:55.111Z,77.81
2019-06-01T01:50:26.141Z,77.85
2019-06-01T01:52:54.894Z,77.38
2019-06-01T01:55:23.498Z,77.76
2019-06-01T01:57:53.296Z,77.92
2019-06-01T02:00:42.937Z,77.90
2019-06-01T02:03:11.792Z,77.80
2019-06-01T02:05:40.689Z,77.34
2019-06-01T02:08:09.421Z,77.87
2019-06-01T02:10:38.274Z,78.05
2019-06-01T02:13:07.510Z,77.46
2019-06-01T02:15:37.447Z,76.87
2019-06-01T02:18:06.776Z,76.99
2019-06-01T02:20:35.414Z,76.96
2019-06-01T02:23:05.076Z,76.82
2019-06-01T02:25:33.711Z,76.74
2019-06-01T02:28:03.375Z,75.98
2019-06-01T02:30:32.230Z,76.77
2019-06-01T02:33:02.448Z,76.55
2019-06-01T02:35:31.239Z,76.67
2019-06-01T02:38:00.397Z,75.92
2019-06-01T02:40:30.349Z,75.47
2019-06-01T02:42:59.339Z,75.75
2019-06-01T02:45:29.742Z,76.15
2019-06-01T02:47:59.538Z,75.25
2019-06-01T02:50:28.309Z,75.07
2019-06-01T02:52:57.282Z,75.67
2019-06-01T02:55:26.088Z,75.17
2019-06-01T02:57:55.925Z,75.40
2019-06-01T03:00:48.300Z,73.93
2019-06-01T03:03:18.377Z,73.88
2019-06-01T03:05:48.308Z,73.35
2019-06-01T03:08:19.038Z,72.54
2019-06-01T03:10:50.300Z,72.97
2019-06-01T03:13:21.769Z,73.15
2019-06-01T03:15:53.393Z,73.54
2019-06-01T03:18:23.503Z,72.34
2019-06-01T03:20:54.269Z,73.03
2019-06-01T03:23:24.675Z,72.51
2019-06-01T03:25:54.555Z,72.60
2019-06-01T03:28:26.109Z,72.63
2019-06-01T03:30:54.752Z,72.45
2019-06-01T03:33:23.384Z,72.67
2019-06-01T03:35:52.005Z,72.58
2019-06-01T03:38:20.949Z,72.99
2019-06-01T03:40:49.579Z,72.73
2019-06-01T03:43:18.928Z,72.47
2019-06-01T03:45:47.563Z,73.51
2019-06-01T03:48:16.207Z,73.56
2019-06-01T03:50:44.841Z,73.38
2019-06-01T03:53:13.703Z,73.50
2019-06-01T03:55:42.409Z,73.03
2019-06-01T03:58:11.222Z,72.24
2019-06-01T04:00:39.900Z,72.30
2019-06-01T04:03:09.205Z,71.80
2019-06-01T04:05:37.923Z,71.78
2019-06-01T04:08:07.537Z,72.09
2019-06-01T04:10:36.371Z,71.59
2019-06-01T04:13:05.635Z,69.81
2019-06-01T04:15:34.616Z,70.76
2019-06-01T04:18:03.906Z,70.86
2019-06-01T04:20:32.508Z,68.98
2019-06-01T04:23:02.012Z,69.81
2019-06-01T04:25:32.255Z,68.55
2019-06-01T04:28:02.086Z,67.80
2019-06-01T04:30:31.333Z,66.31
2019-06-01T04:32:59.876Z,66.95
2019-06-01T04:35:28.513Z,65.49
2019-06-01T04:37:57.151Z,66.50
2019-06-01T04:40:25.942Z,66.41
2019-06-01T04:42:54.667Z,65.77
2019-06-01T04:45:23.269Z,65.24
2019-06-01T04:47:51.773Z,65.32
2019-06-01T04:50:20.398Z,63.96
2019-06-01T04:52:49.118Z,65.18
2019-06-01T04:55:17.750Z,64.89
2019-06-01T04:57:46.396Z,64.95
2019-06-01T05:00:25.985Z,65.47
2019-06-01T05:02:46.296Z,65.52
2019-06-01T05:05:15.443Z,64.67
2019-06-01T05:07:44.426Z,64.61
2019-06-01T05:10:14.242Z,63.58
2019-06-01T05:12:43.508Z,64.42
2019-06-01T05:15:15.963Z,64.30
2019-06-01T05:17:44.862Z,62.79
2019-06-01T05:20:16.642Z,62.93
2019-06-01T05:22:45.433Z,62.90
2019-06-01T05:25:15.311Z,62.91
2019-06-01T05:27:44.093Z,62.94
2019-06-01T05:30:13.721Z,62.27
2019-06-01T05:32:42.552Z,61.13
2019-06-01T05:35:12.195Z,59.78
2019-06-01T05:37:41.042Z,60.73
2019-06-01T05:40:10.634Z,60.78
2019-06-01T05:42:39.302Z,60.20
2019-06-01T05:45:09.425Z,60.18
2019-06-01T05:47:38.067Z,58.38
2019-06-01T05:50:12.209Z,58.43
2019-06-01T05:52:41.633Z,58.56
2019-06-01T05:55:11.017Z,58.18
2019-06-01T05:57:39.644Z,57.95
2019-06-01T06:00:09.456Z,56.59
2019-06-01T06:02:38.809Z,56.26
2019-06-01T06:05:08.645Z,56.17
2019-06-01T06:07:38.084Z,56.70
2019-06-01T06:10:07.435Z,55.69
2019-06-01T06:12:36.316Z,56.57
2019-06-01T06:15:07.045Z,56.36
2019-06-01T06:17:35.653Z,56.19
2019-06-01T06:20:06.195Z,55.87
2019-06-01T06:22:34.815Z,56.47
2019-06-01T06:25:03.491Z,56.22
2019-06-01T06:27:32.161Z,54.23
2019-06-01T06:30:00.913Z,54.44
2019-06-01T06:32:29.553Z,54.19
2019-06-01T06:34:58.179Z,54.15
2019-06-01T06:37:26.838Z,53.54
2019-06-01T06:39:55.485Z,51.82
2019-06-01T06:42:24.459Z,50.95
2019-06-01T06:44:53.283Z,49.88
2019-06-01T06:47:22.963Z,49.30
2019-06-01T06:49:51.684Z,48.32
2019-06-01T06:52:21.476Z,47.81
2019-06-01T06:54:50.135Z,49.49
2019-06-01T06:57:20.068Z,47.54
2019-06-01T06:59:48.799Z,48.01
2019-06-01T07:02:18.677Z,46.78
2019-06-01T07:04:47.472Z,46.00
2019-06-01T07:07:16.052Z,44.88
2019-06-01T07:09:44.760Z,44.23
2019-06-01T07:12:13.601Z,41.91
2019-06-01T07:14:42.257Z,42.69
2019-06-01T07:17:10.910Z,43.38
2019-06-01T07:19:39.550Z,43.34
2019-06-01T07:22:08.108Z,43.41
2019-06-01T07:24:36.903Z,41.34
2019-06-01T07:27:05.518Z,40.94
2019-06-01T07:29:34.197Z,39.18
2019-06-01T07:32:02.816Z,39.40
2019-06-01T07:34:40.307Z,36.76
2019-06-01T07:37:01.822Z,36.31
2019-06-01T07:39:30.430Z,35.33
2019-06-01T07:41:59.191Z,32.79
2019-06-01T07:44:29.236Z,33.56
2019-06-01T07:46:57.948Z,32.54
2019-06-01T07:49:26.997Z,32.63
2019-06-01T07:51:55.789Z,32.49
2019-06-01T07:54:24.859Z,32.86
2019-06-01T07:56:53.575Z,32.77
2019-06-01T07:59:22.978Z,33.20
2019-06-01T08:01:52.432Z,34.36
2019-06-01T08:04:22.866Z,34.33
2019-06-01T08:06:51.573Z,30.43
2019-06-01T08:09:22.030Z,26.18
2019-06-01T08:11:50.632Z,22.96
2019-06-01T08:14:19.286Z,23.48
2019-06-01T08:16:47.926Z,24.40
2019-06-01T08:19:16.608Z,24.06
2019-06-01T08:21:45.250Z,25.99
2019-06-01T08:24:14.455Z,26.89
2019-06-01T08:26:43.320Z,27.97
2019-06-01T08:29:11.966Z,29.60
2019-06-01T08:31:40.540Z,30.05
2019-06-01T08:34:09.259Z,31.09
2019-06-01T08:36:37.939Z,30.56
2019-06-01T08:39:07.381Z,31.96
2019-06-01T08:41:36.048Z,30.06
2019-06-01T08:44:05.083Z,24.17
2019-06-01T08:46:34.020Z,19.87
2019-06-01T08:49:02.671Z,16.88
2019-06-01T08:51:32.085Z,14.11
2019-06-01T08:54:00.797Z,12.49
2019-06-01T08:56:30.253Z,11.12
2019-06-01T08:58:58.934Z,9.13
2019-06-01T09:01:28.654Z,8.59
2019-06-01T09:03:57.356Z,8.55
2019-06-01T09:06:26.726Z,9.66
2019-06-01T09:08:55.471Z,8.20
2019-06-01T09:11:25.085Z,8.59
2019-06-01T09:13:53.749Z,7.98
2019-06-01T09:16:22.487Z,8.02
2019-06-01T09:18:51.260Z,8.68
2019-06-01T09:21:19.895Z,7.83
2019-06-01T09:23:48.526Z,8.06
2019-06-01T09:26:17.162Z,7.76
2019-06-01T09:28:45.798Z,7.97
2019-06-01T09:31:14.499Z,9.05
2019-06-01T09:33:43.272Z,8.63
2019-06-01T09:36:11.830Z,8.16
2019-06-01T09:38:40.477Z,9.80
2019-06-01T09:41:09.160Z,8.22
2019-06-01T09:43:37.822Z,7.50
2019-06-01T09:46:06.462Z,6.78
2019-06-01T09:48:35.647Z,7.58
2019-06-01T09:51:04.665Z,8.50
2019-06-01T09:53:34.483Z,7.26
2019-06-01T09:56:03.547Z,7.37
2019-06-01T09:58:32.322Z,7.48
2019-06-01T10:01:01.007Z,8.64
2019-06-01T10:03:30.252Z,11.02
2019-06-01T10:06:02.194Z,12.47
2019-06-01T10:08:29.452Z,13.51
2019-06-01T10:10:58.100Z,11.71
2019-06-01T10:13:26.745Z,9.23
2019-06-01T10:15:55.460Z,8.13
2019-06-01T10:18:26.857Z,6.53
2019-06-01T10:20:54.373Z,5.53
2019-06-01T10:23:23.008Z,6.81
2019-06-01T10:25:51.698Z,8.25
2019-06-01T10:28:20.338Z,10.25
2019-06-01T10:30:48.978Z,11.69
2019-06-01T10:33:17.544Z,11.64
2019-06-01T10:35:46.222Z,9.96
2019-06-01T10:38:14.871Z,9.87
2019-06-01T10:40:43.440Z,9.56
2019-06-01T10:43:12.332Z,9.75
2019-06-01T10:45:41.962Z,10.00
2019-06-01T10:48:10.819Z,10.23
2019-06-01T10:50:40.618Z,9.96
2019-06-01T10:53:09.392Z,10.54
2019-06-01T10:55:38.391Z,11.41
2019-06-01T10:58:08.574Z,12.83
2019-06-01T11:00:44.144Z,13.98
2019-06-01T11:03:07.810Z,15.51
2019-06-01T11:05:36.785Z,16.52
2019-06-01T11:08:05.493Z,17.13
2019-06-01T11:10:34.824Z,18.27
2019-06-01T11:13:03.633Z,19.90
2019-06-01T11:15:32.891Z,22.17
2019-06-01T11:18:01.676Z,23.13
2019-06-01T11:20:30.508Z,23.81
2019-06-01T11:22:59.248Z,24.89
2019-06-01T11:25:27.886Z,25.03
2019-06-01T11:27:56.591Z,25.52
2019-06-01T11:30:25.441Z,26.30
2019-06-01T11:32:54.001Z,26.49
2019-06-01T11:35:22.781Z,26.39
2019-06-01T11:37:51.392Z,26.55
2019-06-01T11:40:20.052Z,26.72
2019-06-01T11:42:48.696Z,25.55
2019-06-01T11:45:17.330Z,26.98
2019-06-01T11:47:45.962Z,26.58
2019-06-01T11:50:14.926Z,27.41
2019-06-01T11:52:43.566Z,28.49
2019-06-01T11:55:13.219Z,28.15
2019-06-01T11:57:41.877Z,28.74
2019-06-01T12:00:15.111Z,30.43
2019-06-01T12:02:43.927Z,30.32
2019-06-01T12:05:13.975Z,30.81
2019-06-01T12:07:43.825Z,30.22
2019-06-01T12:10:12.782Z,31.04
2019-06-01T12:12:42.344Z,31.07
2019-06-01T12:15:11.966Z,31.78
2019-06-01T12:17:40.774Z,29.51
2019-06-01T12:20:09.577Z,29.06
2019-06-01T12:22:38.804Z,30.21
2019-06-01T12:25:07.637Z,29.53
2019-06-01T12:27:37.357Z,29.75
2019-06-01T12:30:08.281Z,28.84
2019-06-01T12:32:37.893Z,29.11
2019-06-01T12:35:09.656Z,29.08
2019-06-01T12:37:57.066Z,29.31
2019-06-01T12:40:10.660Z,31.54
2019-06-01T12:42:39.792Z,30.12
2019-06-01T12:45:10.291Z,30.47
2019-06-01T12:47:39.920Z,30.17
2019-06-01T12:50:08.948Z,31.36
2019-06-01T12:52:37.589Z,32.07
2019-06-01T12:55:07.144Z,31.65
2019-06-01T12:57:35.783Z,31.71
2019-06-01T13:00:06.901Z,30.29
2019-06-01T13:02:35.742Z,30.57
2019-06-01T13:05:06.116Z,30.71
2019-06-01T13:07:50.576Z,31.34
2019-06-01T13:10:07.303Z,31.85
2019-06-01T13:12:35.886Z,31.25
2019-06-01T13:15:06.418Z,31.87
2019-06-01T13:17:35.056Z,32.17
2019-06-01T13:20:07.603Z,32.28
2019-06-01T13:22:36.437Z,32.42
2019-06-01T13:25:06.981Z,33.17
2019-06-01T13:27:35.628Z,34.24
2019-06-01T13:30:06.844Z,33.75
2019-06-01T13:32:35.521Z,33.91
2019-06-01T13:35:07.309Z,34.45
2019-06-01T13:37:35.873Z,34.52
2019-06-01T13:40:06.515Z,34.73
2019-06-01T13:42:35.137Z,35.01
2019-06-01T13:45:07.377Z,35.00
2019-06-01T13:47:36.021Z,34.69
2019-06-01T13:50:06.833Z,34.37
2019-06-01T13:52:35.787Z,34.45
2019-06-01T13:55:06.215Z,34.24
2019-06-01T13:57:35.001Z,34.45
2019-06-01T14:00:07.817Z,34.19
2019-06-01T14:02:36.581Z,32.93
2019-06-01T14:05:07.328Z,34.29
2019-06-01T14:07:35.989Z,32.99
2019-06-01T14:10:06.786Z,32.19
2019-06-01T14:12:35.426Z,32.68
2019-06-01T14:15:07.560Z,32.16
2019-06-01T14:17:36.271Z,32.31
2019-06-01T14:20:09.353Z,32.16
2019-06-01T14:22:38.594Z,31.50
2019-06-01T14:25:14.119Z,31.39
2019-06-01T14:27:38.826Z,31.65
2019-06-01T14:30:08.474Z,32.14
2019-06-01T14:32:37.249Z,31.77
2019-06-01T14:35:09.127Z,31.82
2019-06-01T14:37:37.707Z,31.85
2019-06-01T14:40:07.181Z,32.08
2019-06-01T14:42:35.911Z,31.88
2019-06-01T14:45:07.046Z,32.35
2019-06-01T14:47:35.526Z,32.69
2019-06-01T14:50:07.462Z,32.66
2019-06-01T14:52:36.104Z,33.45
2019-06-01T14:55:06.780Z,33.70
2019-06-01T14:57:35.714Z,34.28
2019-06-01T15:00:07.599Z,34.06
2019-06-01T15:02:36.257Z,34.51
2019-06-01T15:05:07.514Z,35.23
2019-06-01T15:07:36.343Z,36.39
2019-06-01T15:10:08.990Z,36.23
2019-06-01T15:12:37.624Z,36.77
2019-06-01T15:15:08.082Z,37.48
2019-06-01T15:17:36.720Z,37.79
2019-06-01T15:20:11.607Z,37.84
2019-06-01T15:22:40.171Z,38.49
2019-06-01T15:25:09.642Z,38.44
2019-06-01T15:27:38.234Z,38.96
2019-06-01T15:30:10.252Z,39.23
2019-06-01T15:32:39.123Z,38.86
2019-06-01T15:35:08.305Z,38.69
2019-06-01T15:37:36.952Z,38.63
2019-06-01T15:40:07.868Z,39.13
2019-06-01T15:42:36.616Z,39.52
2019-06-01T15:45:09.764Z,40.30
2019-06-01T15:47:38.496Z,41.92
2019-06-01T15:50:08.150Z,42.60
2019-06-01T15:52:36.806Z,43.66
2019-06-01T15:55:09.516Z,43.61
2019-06-01T15:57:38.160Z,44.06
2019-06-01T16:00:15.029Z,44.32
2019-06-01T16:02:43.757Z,44.58
2019-06-01T16:05:12.594Z,45.06
2019-06-01T16:07:41.350Z,45.47
2019-06-01T16:10:10.878Z,45.65
2019-06-01T16:12:39.530Z,45.74
2019-06-01T16:15:09.061Z,45.38
2019-06-01T16:17:37.733Z,45.51
2019-06-01T16:20:08.951Z,45.67
2019-06-01T16:22:37.773Z,45.73
2019-06-01T16:25:08.115Z,45.81
2019-06-01T16:27:36.955Z,46.16
2019-06-01T16:30:09.469Z,46.49
2019-06-01T16:32:39.550Z,47.10
2019-06-01T16:35:08.986Z,46.92
2019-06-01T16:37:37.637Z,47.16
2019-06-01T16:40:10.385Z,47.39
2019-06-01T16:42:38.293Z,47.72
2019-06-01T16:45:07.937Z,47.43
2019-06-01T16:47:36.583Z,47.91
2019-06-01T16:50:09.636Z,47.64
2019-06-01T16:52:38.485Z,47.75
2019-06-01T16:55:08.783Z,48.42
2019-06-01T16:57:37.404Z,48.44
2019-06-01T17:00:08.205Z,48.69
2019-06-01T17:02:37.055Z,48.89
2019-06-01T17:05:07.406Z,49.15
2019-06-01T17:07:36.047Z,49.22
2019-06-01T17:10:21.762Z,49.65
2019-06-01T17:12:42.934Z,50.15
2019-06-01T17:15:08.560Z,50.00
2019-06-01T17:17:37.210Z,50.29
2019-06-01T17:20:07.394Z,50.25
2019-06-01T17:22:36.080Z,49.97
2019-06-01T17:25:06.418Z,49.76
2019-06-01T17:27:35.063Z,49.95
2019-06-01T17:30:06.971Z,50.13
2019-06-01T17:32:34.430Z,50.38
2019-06-01T17:35:03.372Z,50.53
2019-06-01T17:37:33.277Z,50.51
2019-06-01T17:40:02.460Z,50.72
2019-06-01T17:42:31.270Z,50.71
2019-06-01T17:45:00.809Z,51.22
2019-06-01T17:47:29.642Z,51.32
2019-06-01T17:49:58.322Z,51.69
2019-06-01T17:52:26.982Z,52.25
2019-06-01T17:54:55.619Z,52.63
2019-06-01T17:57:25.862Z,52.71
2019-06-01T17:59:54.499Z,52.26
2019-06-01T18:02:23.235Z,52.51
2019-06-01T18:04:51.997Z,52.50
2019-06-01T18:07:23.483Z,52.85
2019-06-01T18:09:51.174Z,53.59
2019-06-01T18:12:19.817Z,54.23
2019-06-01T18:14:49.820Z,54.57
2019-06-01T18:17:18.448Z,54.97
2019-06-01T18:19:47.111Z,55.37
2019-06-01T18:22:15.769Z,55.68
2019-06-01T18:24:44.588Z,56.04
2019-06-01T18:27:13.225Z,56.54
2019-06-01T18:29:48.397Z,56.65
2019-06-01T18:32:13.540Z,56.80
2019-06-01T18:34:42.176Z,57.17
2019-06-01T18:37:11.493Z,57.21
2019-06-01T18:39:40.278Z,57.61
2019-06-01T18:42:08.991Z,57.50
2019-06-01T18:44:37.636Z,58.00
2019-06-01T18:47:07.600Z,58.08
2019-06-01T18:49:36.637Z,58.32
2019-06-01T18:52:06.500Z,58.76
2019-06-01T18:54:35.065Z,59.44
2019-06-01T18:57:12.243Z,59.32
2019-06-01T18:59:35.666Z,59.28
2019-06-01T19:02:06.337Z,59.55
2019-06-01T19:04:36.579Z,59.62
2019-06-01T19:07:07.057Z,59.53
2019-06-01T19:09:35.822Z,59.55
2019-06-01T19:12:04.571Z,60.14
2019-06-01T19:14:33.142Z,60.03
2019-06-01T19:17:01.921Z,60.52
2019-06-01T19:19:30.610Z,60.82
2019-06-01T19:21:59.216Z,61.31
2019-06-01T19:24:27.933Z,61.24
2019-06-01T19:26:56.560Z,61.61
2019-06-01T19:29:25.215Z,61.80
2019-06-01T19:31:53.902Z,61.66
2019-06-01T19:34:23.087Z,61.48
2019-06-01T19:36:53.629Z,61.35
2019-06-01T19:39:23.650Z,61.12
2019-06-01T19:41:52.662Z,60.83
2019-06-01T19:44:22.079Z,60.65
2019-06-01T19:46:50.935Z,60.82
2019-06-01T19:49:19.585Z,60.96
2019-06-01T19:51:48.202Z,61.23
2019-06-01T19:54:17.083Z,61.80
2019-06-01T19:56:45.703Z,62.04
2019-06-01T19:59:14.560Z,62.50
2019-06-01T20:01:43.192Z,62.56
2019-06-01T20:04:12.471Z,62.97
2019-06-01T20:06:41.098Z,63.10
2019-06-01T20:09:10.940Z,63.01
2019-06-01T20:11:40.000Z,63.24
2019-06-01T20:14:10.125Z,63.17
2019-06-01T20:16:39.920Z,63.19
2019-06-01T20:19:08.630Z,63.21
2019-06-01T20:21:38.834Z,63.29
2019-06-01T20:24:07.673Z,63.33
2019-06-01T20:26:42.138Z,63.40
2019-06-01T20:29:06.671Z,63.30
2019-06-01T20:31:35.302Z,63.27
2019-06-01T20:34:04.288Z,63.23
2019-06-01T20:36:32.947Z,63.32
2019-06-01T20:39:04.280Z,63.44
2019-06-01T20:41:31.960Z,63.44
2019-06-01T20:44:00.537Z,63.58
2019-06-01T20:46:29.255Z,63.89
2019-06-01T20:48:57.950Z,63.97
2019-06-01T20:51:27.929Z,63.73
2019-06-01T20:53:56.679Z,63.81
2019-06-01T20:56:25.324Z,63.63
2019-06-01T20:58:53.970Z,63.67
2019-06-01T21:01:23.894Z,63.63
2019-06-01T21:03:52.590Z,63.60
2019-06-01T21:06:22.422Z,63.25
2019-06-01T21:08:51.282Z,63.36
2019-06-01T21:11:20.103Z,63.31
2019-06-01T21:13:48.718Z,63.62
2019-06-01T21:16:18.073Z,63.63
2019-06-01T21:18:46.772Z,63.68
2019-06-01T21:21:16.384Z,63.29
2019-06-01T21:23:45.271Z,63.09
2019-06-01T21:26:15.019Z,63.63
2019-06-01T21:28:43.792Z,63.62
2019-06-01T21:31:12.372Z,63.84
2019-06-01T21:33:41.018Z,64.14
2019-06-01T21:36:09.669Z,64.01
2019-06-01T21:38:38.592Z,63.27
2019-06-01T21:41:07.177Z,63.30
2019-06-01T21:43:36.056Z,63.10
2019-06-01T21:46:04.701Z,63.29
2019-06-01T21:48:33.257Z,63.76
2019-06-01T21:51:02.083Z,64.38
2019-06-01T21:53:30.956Z,64.26
2019-06-01T21:55:59.599Z,64.57
2019-06-01T21:58:29.674Z,63.88
2019-06-01T22:00:58.483Z,64.09
2019-06-01T22:03:27.495Z,64.67
2019-06-01T22:05:56.271Z,65.55
2019-06-01T22:08:25.459Z,65.92
2019-06-01T22:10:54.065Z,66.83
2019-06-01T22:13:25.343Z,67.96
2019-06-01T22:15:53.102Z,68.61
2019-06-01T22:18:21.734Z,68.44
2019-06-01T22:20:50.437Z,69.12
2019-06-01T22:23:19.723Z,69.57
2019-06-01T22:25:48.414Z,70.03
2019-06-01T22:28:18.128Z,70.25
2019-06-01T22:30:46.835Z,70.55
2019-06-01T22:33:15.489Z,70.78
2019-06-01T22:35:44.126Z,71.07
2019-06-01T22:38:12.961Z,71.16
2019-06-01T22:40:41.467Z,71.26
2019-06-01T22:43:10.154Z,71.27
2019-06-01T22:45:38.823Z,71.15
2019-06-01T22:48:07.464Z,71.08
2019-06-01T22:50:36.108Z,70.96
2019-06-01T22:53:04.740Z,71.21
2019-06-01T22:55:33.589Z,70.83
2019-06-01T22:58:02.232Z,70.74
2019-06-01T23:00:32.002Z,71.02
2019-06-01T23:03:00.726Z,71.02
2019-06-01T23:05:29.350Z,70.33
2019-06-01T23:07:57.994Z,70.16
2019-06-01T23:10:30.048Z,69.96
2019-06-01T23:12:57.174Z,70.12
2019-06-01T23:15:25.811Z,69.70
2019-06-01T23:17:54.438Z,69.67
2019-06-01T23:20:23.814Z,69.59
2019-06-01T23:22:52.502Z,69.90
2019-06-01T23:25:22.417Z,70.04
2019-06-01T23:27:51.295Z,70.35
2019-06-01T23:30:20.271Z,70.90
2019-06-01T23:32:48.923Z,71.08
2019-06-01T23:35:17.551Z,71.25
2019-06-01T23:37:46.210Z,71.14
2019-06-01T23:40:14.946Z,71.21
2019-06-01T23:42:43.773Z,71.05
2019-06-01T23:45:12.417Z,71.13
2019-06-01T23:47:41.105Z,71.33
2019-06-01T23:50:09.830Z,71.02
2019-06-01T23:52:38.471Z,70.70
2019-06-01T23:55:07.630Z,70.60
2019-06-01T23:57:36.270Z,70.42
